Time;durP1;ratioP1;P1;durP2;ratioP2;P2;SDS_P1;SDS_P2;PMS_P1;PMS_P2;Temp;Humidity;BMP_temperature;BMP_pressure;BME280_temperature;BME280_humidity;BME280_pressure;Samples;Min_cycle;Max_cycle;Signal;HPM_P1;HPM_P2
2023/01/02 00:00:54;;;;;;;6.72;4.78;;;23.80;55.90;;;;;;5021701;28;20048;-66
2023/01/02 00:03:19;;;;;;;6.85;4.78;;;23.80;55.90;;;;;;5020091;28;20022;-66
2023/01/02 00:05:45;;;;;;;7.22;4.70;;;23.90;55.90;;;;;;5031705;28;20365;-65
2023/01/02 00:08:10;;;;;;;6.70;4.93;;;23.80;55.80;;;;;;5016652;28;20132;-67
2023/01/02 00:10:36;;;;;;;8.05;5.00;;;23.90;55.80;;;;;;5020302;28;20030;-65
2023/01/02 00:13:02;;;;;;;6.43;4.63;;;23.90;56.30;;;;;;5014581;28;20021;-65
2023/01/02 00:15:27;;;;;;;8.13;5.05;;;23.90;55.70;;;;;;5020519;28;20026;-66
2023/01/02 00:17:53;;;;;;;6.50;4.63;;;23.90;55.70;;;;;;5018246;28;20536;-65
2023/01/02 00:20:18;;;;;;;6.60;4.70;;;23.90;55.70;;;;;;5023498;28;20101;-65
2023/01/02 00:22:44;;;;;;;6.43;4.47;;;23.90;55.60;;;;;;5016637;28;20046;-65
2023/01/02 00:25:10;;;;;;;6.20;4.78;;;23.90;55.60;;;;;;5023011;28;20502;-65
2023/01/02 00:27:35;;;;;;;7.22;4.80;;;24.00;55.60;;;;;;5016358;28;20092;-66
2023/01/02 00:30:01;;;;;;;8.23;4.85;;;24.00;55.60;;;;;;5016202;28;20033;-65
2023/01/02 00:32:27;;;;;;;6.65;4.50;;;24.00;55.50;;;;;;5018456;28;20037;-65
2023/01/02 00:34:52;;;;;;;6.28;4.63;;;24.00;55.50;;;;;;5022132;28;20062;-66
2023/01/02 00:37:18;;;;;;;7.00;4.75;;;24.10;55.50;;;;;;5023481;28;20075;-65
2023/01/02 00:39:43;;;;;;;6.70;4.53;;;24.00;55.30;;;;;;5027875;28;20140;-66
2023/01/02 00:42:09;;;;;;;6.28;4.32;;;24.00;55.30;;;;;;5022801;28;20030;-66
2023/01/02 00:44:35;;;;;;;6.22;4.35;;;24.00;55.30;;;;;;5021437;28;20033;-66
2023/01/02 00:47:00;;;;;;;6.63;4.72;;;24.10;55.30;;;;;;5022518;28;20057;-65
2023/01/02 00:49:26;;;;;;;6.40;4.40;;;24.10;55.30;;;;;;5022959;28;20022;-65
2023/01/02 00:51:51;;;;;;;6.28;4.70;;;24.10;55.20;;;;;;5023573;28;20025;-64
2023/01/02 00:54:17;;;;;;;6.55;4.43;;;24.10;55.20;;;;;;5021972;28;20018;-66
2023/01/02 00:56:42;;;;;;;6.30;4.38;;;24.10;55.20;;;;;;5023913;28;20496;-65
2023/01/02 00:59:08;;;;;;;6.55;4.68;;;24.10;55.20;;;;;;5021293;28;20025;-65
2023/01/02 01:01:34;;;;;;;5.68;4.30;;;24.10;55.10;;;;;;5022845;28;20581;-66
2023/01/02 01:04:00;;;;;;;6.07;4.53;;;24.10;55.10;;;;;;5024478;28;20034;-66
2023/01/02 01:06:25;;;;;;;6.18;4.53;;;24.10;55.00;;;;;;5021026;28;20038;-66
2023/01/02 01:08:51;;;;;;;7.22;4.50;;;24.10;55.00;;;;;;5021891;28;20099;-65
2023/01/02 01:11:17;;;;;;;6.88;4.78;;;24.10;55.00;;;;;;5018298;28;20033;-65
2023/01/02 01:13:43;;;;;;;5.97;4.07;;;24.10;55.60;;;;;;5021548;28;20044;-65
2023/01/02 01:16:15;;;;;;;6.85;4.43;;;24.10;55.00;;;;;;5019799;28;20080;-66
2023/01/02 01:18:42;;;;;;;6.85;4.35;;;24.10;54.90;;;;;;5021416;28;20021;-66
2023/01/02 01:21:12;;;;;;;6.55;4.20;;;24.10;54.90;;;;;;5020829;28;20124;-65
2023/01/02 01:23:38;;;;;;;6.40;4.60;;;24.10;54.90;;;;;;5021178;28;20034;-65
2023/01/02 01:26:06;;;;;;;5.82;4.30;;;24.10;54.80;;;;;;5022940;28;20039;-64
2023/01/02 01:28:32;;;;;;;6.22;4.30;;;24.10;54.80;;;;;;5019516;28;20014;-65
2023/01/02 01:31:12;;;;;;;5.05;3.80;;;24.20;54.80;;;;;;5025069;28;20480;-65
2023/01/02 01:33:39;;;;;;;5.28;3.92;;;24.10;54.80;;;;;;5036180;28;20033;-67
2023/01/02 01:36:11;;;;;;;5.72;3.92;;;24.10;54.70;;;;;;5018298;28;20026;-65
2023/01/02 01:38:37;;;;;;;5.50;4.20;;;24.20;54.70;;;;;;5021999;28;20377;-66
2023/01/02 01:41:03;;;;;;;5.65;4.50;;;24.10;54.70;;;;;;5026701;28;20124;-66
2023/01/02 01:43:42;;;;;;;6.38;4.65;;;24.20;54.70;;;;;;5020595;28;20053;-65
2023/01/02 01:46:19;;;;;;;5.65;3.63;;;24.20;54.70;;;;;;5020728;28;20496;-65
2023/01/02 01:48:47;;;;;;;5.95;3.80;;;24.20;54.60;;;;;;5020880;28;20065;-63
2023/01/02 01:51:14;;;;;;;5.20;3.78;;;24.20;54.60;;;;;;5016802;28;20464;-66
2023/01/02 01:53:41;;;;;;;5.78;3.72;;;24.20;54.60;;;;;;5022442;28;20452;-64
2023/01/02 01:56:09;;;;;;;4.82;3.47;;;24.10;54.50;;;;;;5018371;28;20424;-63
2023/01/02 01:58:41;;;;;;;5.88;3.50;;;24.10;54.50;;;;;;5019199;28;20030;-65
2023/01/02 02:01:09;;;;;;;5.15;3.90;;;24.10;54.50;;;;;;5022372;28;20030;-64
2023/01/02 02:03:36;;;;;;;5.20;3.67;;;24.10;54.60;;;;;;5016950;28;20034;-64
2023/01/02 02:06:03;;;;;;;5.03;3.75;;;24.10;54.60;;;;;;5017289;28;20452;-64
2023/01/02 02:08:55;;;;;;;4.97;3.70;;;24.10;54.60;;;;;;5017835;28;20030;-63
2023/01/02 02:11:22;;;;;;;4.90;3.67;;;24.10;54.70;;;;;;5020608;28;20473;-65
2023/01/02 02:13:48;;;;;;;4.97;3.65;;;24.00;54.60;;;;;;5019560;28;20034;-63
2023/01/02 02:16:17;;;;;;;5.22;3.70;;;23.90;54.60;;;;;;5020595;28;20030;-64
2023/01/02 02:19:20;;;;;;;5.10;3.87;;;23.90;54.70;;;;;;5020524;28;20042;-64
2023/01/02 02:21:54;;;;;;;5.13;3.83;;;23.90;54.70;;;;;;5032257;28;20030;-63
2023/01/02 02:24:26;;;;;;;5.40;3.78;;;23.90;54.80;;;;;;5022853;28;20030;-64
2023/01/02 02:26:52;;;;;;;4.97;3.58;;;23.90;54.80;;;;;;5020567;28;20470;-64
2023/01/02 02:29:55;;;;;;;4.53;3.45;;;23.80;54.80;;;;;;5016266;28;20022;-64
2023/01/02 02:32:39;;;;;;;6.15;3.58;;;23.80;54.90;;;;;;5021024;28;20080;-64
2023/01/02 02:35:08;;;;;;;4.82;3.60;;;23.70;54.80;;;;;;5020937;28;20021;-64
2023/01/02 02:37:55;;;;;;;5.22;3.53;;;23.70;54.90;;;;;;5019014;28;20029;-64
2023/01/02 02:40:42;;;;;;;4.50;3.60;;;23.70;54.90;;;;;;5020925;28;20045;-64
2023/01/02 02:43:24;;;;;;;5.93;3.95;;;23.70;55.00;;;;;;5018948;28;20026;-64
2023/01/02 02:46:09;;;;;;;4.35;3.17;;;23.70;55.00;;;;;;5034834;28;20041;-65
2023/01/02 02:48:54;;;;;;;4.82;3.35;;;23.60;55.00;;;;;;5019218;28;20338;-65
2023/01/02 02:51:30;;;;;;;4.63;3.20;;;23.60;55.10;;;;;;5021056;28;20524;-63
2023/01/02 02:54:22;;;;;;;4.43;3.30;;;23.60;55.10;;;;;;5019947;28;20109;-64
2023/01/02 02:56:50;;;;;;;5.05;3.53;;;23.50;55.10;;;;;;5021917;28;20461;-64
2023/01/02 02:59:17;;;;;;;5.72;3.53;;;23.50;55.10;;;;;;5021640;28;20413;-64
2023/01/02 03:01:43;;;;;;;4.40;3.30;;;23.50;55.20;;;;;;5019823;28;20037;-64
2023/01/02 03:04:17;;;;;;;4.82;3.22;;;23.50;55.20;;;;;;5020088;28;20449;-65
2023/01/02 03:07:15;;;;;;;4.65;3.28;;;23.40;55.20;;;;;;5018629;28;20108;-64
2023/01/02 03:10:03;;;;;;;4.88;3.45;;;23.40;55.30;;;;;;5017468;28;20073;-64
2023/01/02 03:12:29;;;;;;;5.07;3.20;;;23.40;55.30;;;;;;5018628;28;20083;-64
2023/01/02 03:15:06;;;;;;;4.78;3.10;;;23.40;55.30;;;;;;5016601;28;20034;-63
2023/01/02 03:17:45;;;;;;;4.90;3.40;;;23.40;55.30;;;;;;5022836;28;20037;-64
2023/01/02 03:20:16;;;;;;;4.45;3.10;;;23.30;55.30;;;;;;5018681;28;20036;-64
2023/01/02 03:22:47;;;;;;;3.90;2.70;;;23.30;55.30;;;;;;5019192;28;20080;-64
2023/01/02 03:25:14;;;;;;;4.70;3.30;;;23.30;55.40;;;;;;5017943;28;20099;-65
2023/01/02 03:27:43;;;;;;;4.45;3.15;;;23.20;55.40;;;;;;5022517;28;20381;-63
2023/01/02 03:30:12;;;;;;;;;;;23.30;55.50;;;;;;5021534;28;20091;-63
2023/01/02 03:32:46;;;;;;;4.10;2.88;;;23.20;55.40;;;;;;5022014;28;19928;-65
2023/01/02 03:35:17;;;;;;;3.88;2.80;;;23.20;55.40;;;;;;5019318;28;20056;-64
2023/01/02 03:37:47;;;;;;;3.72;2.80;;;23.20;55.40;;;;;;5016914;28;20116;-63
2023/01/02 03:40:20;;;;;;;4.70;2.90;;;23.20;55.50;;;;;;5018185;28;20032;-63
2023/01/02 03:42:57;;;;;;;4.47;2.88;;;23.20;55.50;;;;;;5023775;28;20480;-62
2023/01/02 03:45:30;;;;;;;4.47;2.85;;;23.20;55.50;;;;;;5018830;28;20033;-62
2023/01/02 03:47:59;;;;;;;4.45;2.70;;;23.10;55.50;;;;;;5016322;28;20030;-63
2023/01/02 03:50:31;;;;;;;3.80;2.55;;;23.10;55.50;;;;;;5022485;28;20030;-63
2023/01/02 03:52:57;;;;;;;4.10;3.08;;;23.00;55.50;;;;;;5033089;28;20495;-62
2023/01/02 03:55:25;;;;;;;3.92;2.80;;;23.10;55.60;;;;;;5021716;28;20029;-64
2023/01/02 03:58:08;;;;;;;4.10;2.90;;;23.00;55.60;;;;;;5020615;28;20523;-63
2023/01/02 04:00:45;;;;;;;4.30;2.70;;;23.00;55.60;;;;;;5021327;28;20181;-62
2023/01/02 04:03:32;;;;;;;3.70;2.70;;;23.00;55.60;;;;;;5018181;28;20031;-64
2023/01/02 04:06:14;;;;;;;4.15;3.00;;;23.00;55.60;;;;;;5027374;28;20033;-66
2023/01/02 04:08:54;;;;;;;4.72;3.00;;;22.90;55.60;;;;;;5017502;28;20029;-64
2023/01/02 04:11:21;;;;;;;3.63;2.70;;;23.00;55.70;;;;;;5032245;28;20033;-65
2023/01/02 04:13:56;;;;;;;4.10;3.13;;;22.90;55.70;;;;;;5017863;28;20121;-64
2023/01/02 04:16:26;;;;;;;4.00;2.60;;;22.90;55.70;;;;;;5037862;28;20365;-66
2023/01/02 04:19:08;;;;;;;3.55;2.60;;;22.90;55.70;;;;;;5021228;28;20087;-62
2023/01/02 04:21:37;;;;;;;3.80;2.70;;;22.90;55.70;;;;;;5015720;28;20500;-63
2023/01/02 04:24:06;;;;;;;4.50;2.88;;;22.90;55.80;;;;;;5019195;28;20026;-62
2023/01/02 04:26:48;;;;;;;3.78;2.60;;;22.80;55.70;;;;;;5017398;28;20069;-62
2023/01/02 04:29:14;;;;;;;3.45;2.40;;;22.80;55.80;;;;;;5018878;28;20029;-63
2023/01/02 04:32:02;;;;;;;4.10;2.70;;;22.80;55.80;;;;;;5018944;28;20477;-63
2023/01/02 04:34:30;;;;;;;3.90;2.70;;;22.80;55.80;;;;;;5015268;28;20396;-62
2023/01/02 04:36:56;;;;;;;4.45;2.50;;;22.80;55.90;;;;;;5019234;28;20513;-62
2023/01/02 04:39:23;;;;;;;3.83;2.40;;;22.70;55.90;;;;;;5020546;28;20034;-62
2023/01/02 04:41:48;;;;;;;3.53;2.55;;;22.70;55.90;;;;;;5018243;28;20069;-62
2023/01/02 04:44:14;;;;;;;3.42;2.42;;;22.70;55.90;;;;;;5017808;28;20072;-63
2023/01/02 04:46:40;;;;;;;4.22;2.55;;;22.70;55.90;;;;;;5017442;28;20058;-64
2023/01/02 04:49:05;;;;;;;3.28;2.28;;;22.70;56.00;;;;;;5020210;28;20018;-64
2023/01/02 04:51:31;;;;;;;3.42;2.20;;;22.70;56.00;;;;;;5015933;28;20465;-62
2023/01/02 04:53:56;;;;;;;3.63;2.40;;;22.70;56.00;;;;;;5017997;28;20060;-64
2023/01/02 04:56:22;;;;;;;3.45;2.20;;;22.70;56.10;;;;;;5014927;28;20084;-66
2023/01/02 04:58:48;;;;;;;3.22;2.30;;;22.60;56.10;;;;;;5015311;28;20030;-62
2023/01/02 05:01:17;;;;;;;3.25;2.38;;;22.60;56.10;;;;;;5017340;28;20477;-65
2023/01/02 05:03:44;;;;;;;3.08;2.17;;;22.60;56.10;;;;;;5018704;28;20033;-62
2023/01/02 05:06:10;;;;;;;3.13;2.13;;;22.60;56.10;;;;;;5022911;28;20445;-62
2023/01/02 05:08:36;;;;;;;3.45;2.33;;;22.60;56.10;;;;;;5017192;28;20025;-63
2023/01/02 05:11:20;;;;;;;3.95;2.60;;;22.60;56.20;;;;;;5020342;28;20022;-63
2023/01/02 05:13:46;;;;;;;3.42;2.45;;;22.60;56.20;;;;;;5017697;28;20485;-62
2023/01/02 05:16:11;;;;;;;3.63;2.35;;;22.50;56.20;;;;;;5017715;28;20063;-62
2023/01/02 05:18:37;;;;;;;3.60;2.30;;;22.50;56.20;;;;;;5021422;28;20146;-61
2023/01/02 05:23:53;;;;;;;3.30;2.35;;;22.50;56.20;;;;;;5021297;28;20592;-64
2023/01/02 05:26:18;;;;;;;3.58;2.40;;;22.50;56.20;;;;;;5020594;28;20108;-62
2023/01/02 05:28:44;;;;;;;4.05;2.50;;;22.50;56.30;;;;;;5023232;28;20056;-63
2023/01/02 05:31:10;;;;;;;3.50;2.15;;;22.50;56.30;;;;;;5016910;28;20026;-63
2023/01/02 05:33:36;;;;;;;3.22;2.20;;;22.40;56.30;;;;;;5022378;28;20022;-63
2023/01/02 05:36:07;;;;;;;2.95;2.25;;;22.40;56.30;;;;;;5020747;28;20586;-62
2023/01/02 05:38:33;;;;;;;4.07;2.50;;;22.40;56.30;;;;;;5022023;28;20033;-63
2023/01/02 05:41:04;;;;;;;3.80;2.40;;;22.40;56.30;;;;;;5025272;28;20365;-63
2023/01/02 05:43:34;;;;;;;2.95;2.15;;;22.40;56.40;;;;;;5024994;28;20389;-63
2023/01/02 05:46:12;;;;;;;3.42;2.30;;;22.40;56.40;;;;;;5022127;28;20507;-63
2023/01/02 05:48:38;;;;;;;3.50;2.35;;;22.40;56.40;;;;;;5020033;28;20022;-62
2023/01/02 05:51:06;;;;;;;3.13;2.28;;;22.40;56.40;;;;;;5018760;28;20034;-63
2023/01/02 05:53:32;;;;;;;3.47;2.25;;;22.40;56.40;;;;;;5020156;28;20476;-62
2023/01/02 05:56:09;;;;;;;3.33;2.30;;;22.30;56.40;;;;;;5025115;28;20044;-63
2023/01/02 05:58:37;;;;;;;3.22;2.10;;;22.30;56.40;;;;;;5017305;28;20026;-62
2023/01/02 06:01:23;;;;;;;3.10;2.20;;;22.30;56.40;;;;;;5034509;28;20065;-62
2023/01/02 06:03:51;;;;;;;3.22;2.10;;;22.30;56.40;;;;;;5017707;28;20137;-62
2023/01/02 06:06:24;;;;;;;2.65;1.88;;;22.30;56.50;;;;;;5036203;28;20022;-62
2023/01/02 06:08:50;;;;;;;2.90;2.05;;;22.30;56.50;;;;;;5027551;28;20417;-62
2023/01/02 06:11:16;;;;;;;3.00;2.13;;;22.30;56.50;;;;;;5019165;28;20126;-63
2023/01/02 06:13:42;;;;;;;2.80;2.03;;;22.20;56.50;;;;;;5020162;28;20444;-63
2023/01/02 06:16:09;;;;;;;3.88;2.50;;;22.30;56.50;;;;;;5022138;28;20051;-63
2023/01/02 06:18:36;;;;;;;2.95;2.10;;;22.20;56.50;;;;;;5022959;28;20516;-62
2023/01/02 06:21:04;;;;;;;3.17;2.20;;;22.20;56.50;;;;;;5021859;28;20029;-63
2023/01/02 06:23:30;;;;;;;3.25;2.15;;;22.20;56.50;;;;;;5017058;28;20066;-64
2023/01/02 06:26:02;;;;;;;3.03;2.20;;;22.20;56.50;;;;;;5020193;28;20457;-63
2023/01/02 06:28:29;;;;;;;3.03;2.10;;;22.20;56.50;;;;;;5022595;28;20024;-63
2023/01/02 06:31:03;;;;;;;2.75;2.08;;;22.20;56.60;;;;;;5019568;28;20026;-63
2023/01/02 06:33:29;;;;;;;3.38;2.17;;;22.20;56.60;;;;;;5023977;28;20057;-64
2023/01/02 06:36:18;;;;;;;3.00;1.92;;;22.20;56.60;;;;;;5020658;28;20424;-62
2023/01/02 06:38:44;;;;;;;3.42;2.10;;;22.20;56.60;;;;;;5019972;28;20515;-63
2023/01/02 06:41:11;;;;;;;2.90;2.00;;;22.20;56.60;;;;;;5019767;28;20584;-63
2023/01/02 06:43:45;;;;;;;2.67;1.98;;;22.20;56.60;;;;;;5020117;28;20156;-63
2023/01/02 06:46:12;;;;;;;3.70;2.25;;;22.20;56.60;;;;;;5021760;28;20022;-63
2023/01/02 06:48:38;;;;;;;2.88;1.98;;;22.10;56.60;;;;;;5021503;28;20491;-63
2023/01/02 06:51:05;;;;;;;2.90;2.00;;;22.10;56.60;;;;;;5021785;28;20025;-63
2023/01/02 06:53:33;;;;;;;3.25;2.10;;;22.10;56.60;;;;;;5019110;28;20032;-64
2023/01/02 06:55:58;;;;;;;3.95;2.50;;;22.10;56.60;;;;;;5017884;28;20034;-63
2023/01/02 06:58:27;;;;;;;3.35;2.08;;;22.10;56.60;;;;;;5028324;28;20040;-64
2023/01/02 07:00:52;;;;;;;3.43;2.03;;;22.10;56.60;;;;;;5019749;28;20453;-63
2023/01/02 07:03:18;;;;;;;2.80;2.00;;;22.10;56.60;;;;;;5023121;28;20280;-63
2023/01/02 07:05:44;;;;;;;3.13;2.17;;;22.10;56.60;;;;;;5022742;28;20056;-63
2023/01/02 07:08:11;;;;;;;2.75;1.90;;;22.10;56.60;;;;;;5018491;28;20382;-64
2023/01/02 07:10:37;;;;;;;2.90;1.90;;;22.10;56.60;;;;;;5021111;28;20025;-64
2023/01/02 07:13:02;;;;;;;2.80;1.90;;;22.10;56.60;;;;;;5022552;28;20030;-63
2023/01/02 07:15:28;;;;;;;2.70;1.90;;;22.00;57.10;;;;;;5023689;28;20022;-63
2023/01/02 07:17:54;;;;;;;2.58;1.85;;;22.10;56.60;;;;;;5020533;28;20382;-64
2023/01/02 07:20:20;;;;;;;3.17;2.00;;;22.00;56.60;;;;;;5020248;28;20033;-63
2023/01/02 07:22:50;;;;;;;3.15;2.03;;;22.00;56.60;;;;;;5018890;28;20084;-63
2023/01/02 07:25:17;;;;;;;2.80;1.98;;;22.00;56.60;;;;;;5016984;28;20030;-63
2023/01/02 07:27:43;;;;;;;3.20;2.10;;;22.00;56.60;;;;;;5019478;28;20453;-63
2023/01/02 07:30:09;;;;;;;3.42;2.30;;;22.00;56.60;;;;;;5019632;28;20041;-63
2023/01/02 07:32:35;;;;;;;3.00;2.00;;;22.00;56.60;;;;;;5020385;28;20030;-63
2023/01/02 07:35:00;;;;;;;3.00;2.10;;;22.00;56.60;;;;;;5017531;28;20025;-63
2023/01/02 07:37:26;;;;;;;3.10;2.13;;;22.00;56.70;;;;;;5018047;28;20051;-63
2023/01/02 07:39:52;;;;;;;2.72;1.90;;;22.00;56.70;;;;;;5018326;28;20491;-62
2023/01/02 07:42:17;;;;;;;3.20;2.10;;;21.90;56.60;;;;;;5024777;28;20029;-64
2023/01/02 07:44:43;;;;;;;2.97;2.00;;;22.00;56.70;;;;;;5019228;28;20428;-63
2023/01/02 07:47:08;;;;;;;3.45;2.15;;;21.90;56.70;;;;;;5019273;28;21075;-63
2023/01/02 07:49:34;;;;;;;3.50;2.00;;;21.90;56.60;;;;;;5020943;28;20033;-63
2023/01/02 07:51:59;;;;;;;3.03;2.00;;;22.00;56.70;;;;;;5018583;28;20564;-62
2023/01/02 07:54:25;;;;;;;3.00;2.10;;;21.90;56.70;;;;;;5019395;28;20030;-63
2023/01/02 07:56:51;;;;;;;2.85;2.00;;;21.90;56.70;;;;;;5019042;28;20037;-64
2023/01/02 07:59:17;;;;;;;3.00;1.92;;;21.90;56.70;;;;;;5016444;28;20488;-63
2023/01/02 08:01:43;;;;;;;2.97;2.17;;;21.90;56.70;;;;;;5020191;28;20029;-63
2023/01/02 08:04:08;;;;;;;2.97;2.00;;;21.90;56.70;;;;;;5019811;28;20026;-63
2023/01/02 08:06:34;;;;;;;2.78;1.90;;;21.90;56.70;;;;;;5017729;28;20477;-63
2023/01/02 08:08:59;;;;;;;2.78;2.00;;;21.90;56.70;;;;;;5021677;28;20093;-63
2023/01/02 08:11:25;;;;;;;3.33;1.95;;;21.90;56.70;;;;;;5019622;28;20553;-64
2023/01/02 08:13:51;;;;;;;2.80;1.90;;;21.90;56.70;;;;;;5016754;28;20167;-63
2023/01/02 08:16:19;;;;;;;2.80;1.95;;;21.80;56.60;;;;;;5019745;28;20049;-64
2023/01/02 08:18:50;;;;;;;2.72;1.95;;;21.80;56.60;;;;;;5017443;28;20037;-63
2023/01/02 08:21:16;;;;;;;3.00;2.10;;;21.80;56.60;;;;;;5016690;28;20121;-63
2023/01/02 08:23:42;;;;;;;2.85;2.00;;;21.80;56.70;;;;;;5013591;28;20162;-63
2023/01/02 08:26:09;;;;;;;3.03;1.85;;;21.80;56.70;;;;;;5024986;28;20092;-63
2023/01/02 08:28:36;;;;;;;2.90;2.05;;;21.80;56.70;;;;;;5018473;28;20034;-63
2023/01/02 08:31:08;;;;;;;3.05;2.10;;;21.80;56.70;;;;;;5020166;28;20022;-64
2023/01/02 08:33:34;;;;;;;3.00;1.83;;;21.80;56.70;;;;;;5017038;28;20034;-62
2023/01/02 08:36:00;;;;;;;2.50;1.70;;;21.80;56.70;;;;;;5015658;28;20075;-63
2023/01/02 08:38:26;;;;;;;2.90;2.00;;;21.80;56.70;;;;;;5022170;28;20971;-63
2023/01/02 08:40:51;;;;;;;2.63;1.92;;;21.80;56.70;;;;;;5017957;28;20036;-63
2023/01/02 08:43:17;;;;;;;2.95;2.03;;;21.80;56.70;;;;;;5016157;28;20335;-63
2023/01/02 08:45:43;;;;;;;2.80;2.03;;;21.80;56.70;;;;;;5016811;28;20026;-65
2023/01/02 08:48:08;;;;;;;3.75;2.00;;;21.80;56.70;;;;;;5020422;28;20084;-62
2023/01/02 08:50:34;;;;;;;2.58;1.77;;;21.80;56.70;;;;;;5019904;28;20171;-63
2023/01/02 08:52:59;;;;;;;2.70;1.83;;;21.80;56.70;;;;;;5019881;28;20101;-63
2023/01/02 08:55:25;;;;;;;3.53;2.03;;;21.80;56.70;;;;;;5016817;28;20485;-64
2023/01/02 08:57:51;;;;;;;3.03;2.10;;;21.80;56.70;;;;;;5014807;28;20034;-63
2023/01/02 09:00:17;;;;;;;2.90;1.90;;;21.80;56.70;;;;;;5019230;28;20499;-64
2023/01/02 09:02:42;;;;;;;2.83;1.90;;;21.80;56.70;;;;;;5024660;28;20093;-63
2023/01/02 09:05:08;;;;;;;2.80;1.88;;;21.80;56.70;;;;;;5019984;28;20108;-63
2023/01/02 09:07:34;;;;;;;3.05;1.98;;;21.80;56.80;;;;;;5025803;28;20136;-63
2023/01/02 09:09:59;;;;;;;2.30;1.70;;;21.70;56.70;;;;;;5028285;28;20014;-62
2023/01/02 09:12:25;;;;;;;2.63;1.90;;;21.70;56.70;;;;;;5023060;28;20029;-63
2023/01/02 09:14:50;;;;;;;2.92;2.10;;;21.70;56.70;;;;;;5021228;28;20460;-62
2023/01/02 09:17:16;;;;;;;3.28;1.95;;;21.70;56.70;;;;;;5027143;28;20022;-63
2023/01/02 09:19:43;;;;;;;2.53;1.73;;;21.70;56.70;;;;;;5020779;28;20029;-63
2023/01/02 09:22:09;;;;;;;2.70;1.70;;;21.70;56.70;;;;;;5019843;28;20026;-63
2023/01/02 09:24:35;;;;;;;2.47;1.73;;;21.70;56.80;;;;;;5024780;28;20419;-62
2023/01/02 09:27:01;;;;;;;2.35;1.77;;;21.70;56.80;;;;;;5023059;28;20036;-63
2023/01/02 09:29:26;;;;;;;2.70;1.73;;;21.70;56.80;;;;;;5026149;28;20415;-63
2023/01/02 09:31:52;;;;;;;3.15;2.00;;;21.70;56.80;;;;;;5021700;28;20383;-63
2023/01/02 09:34:19;;;;;;;2.88;1.90;;;21.70;56.80;;;;;;5018200;28;20034;-64
2023/01/02 09:36:46;;;;;;;2.88;1.88;;;21.70;56.80;;;;;;5022290;28;21038;-63
2023/01/02 09:39:12;;;;;;;2.95;1.92;;;21.70;56.80;;;;;;5029023;28;20033;-63
2023/01/02 09:41:40;;;;;;;2.67;1.90;;;21.70;56.80;;;;;;5024438;28;20651;-64
2023/01/02 09:44:18;;;;;;;2.60;1.77;;;21.70;56.80;;;;;;5036696;28;20392;-64
2023/01/02 09:46:59;;;;;;;2.83;1.92;;;21.70;56.80;;;;;;5020825;28;20035;-63
2023/01/02 09:49:28;;;;;;;2.85;1.95;;;21.70;56.80;;;;;;5020161;28;20522;-62
2023/01/02 09:51:54;;;;;;;2.97;1.92;;;21.70;56.80;;;;;;5021844;28;20018;-63
2023/01/02 09:54:22;;;;;;;2.55;1.98;;;21.70;56.80;;;;;;5020514;28;20341;-63
2023/01/02 09:56:59;;;;;;;2.80;1.80;;;21.70;56.90;;;;;;5021430;28;20059;-64
2023/01/02 10:00:03;;;;;;;2.67;1.90;;;21.70;56.90;;;;;;5019119;28;20021;-63
2023/01/02 10:02:48;;;;;;;2.60;1.70;;;21.70;56.90;;;;;;5024122;28;20406;-63
2023/01/02 10:05:39;;;;;;;2.70;1.73;;;21.60;56.80;;;;;;5020884;28;20144;-62
2023/01/02 10:08:13;;;;;;;2.72;1.73;;;21.70;56.90;;;;;;5023992;28;20022;-63
2023/01/02 10:11:04;;;;;;;3.08;1.95;;;21.60;56.90;;;;;;5017925;28;20433;-63
2023/01/02 10:13:35;;;;;;;2.60;1.80;;;21.60;56.90;;;;;;5022025;28;20105;-63
2023/01/02 10:16:04;;;;;;;2.78;1.83;;;21.60;56.90;;;;;;5035133;28;20037;-63
2023/01/02 10:18:42;;;;;;;3.05;1.90;;;21.60;56.90;;;;;;5018583;28;20026;-62
2023/01/02 10:21:15;;;;;;;2.28;1.52;;;21.60;56.90;;;;;;5022216;28;20788;-63
2023/01/02 10:23:47;;;;;;;2.97;1.90;;;21.60;56.90;;;;;;5017813;28;20037;-63
2023/01/02 10:26:17;;;;;;;2.70;1.70;;;21.60;56.90;;;;;;5018418;28;20029;-63
2023/01/02 10:28:45;;;;;;;3.20;1.60;;;21.60;57.00;;;;;;5016557;28;20046;-62
2023/01/02 10:31:30;;;;;;;2.35;1.60;;;21.60;57.00;;;;;;5016909;28;20044;-63
2023/01/02 10:33:58;;;;;;;2.92;1.98;;;21.60;57.00;;;;;;5021856;28;20554;-63
2023/01/02 10:36:27;;;;;;;3.22;1.67;;;21.60;57.50;;;;;;5021480;28;20100;-64
2023/01/02 10:38:59;;;;;;;3.30;1.75;;;21.60;57.00;;;;;;5020026;28;20049;-62
2023/01/02 10:41:26;;;;;;;2.65;1.90;;;21.60;57.00;;;;;;5019469;28;20460;-64
2023/01/02 10:43:55;;;;;;;2.58;1.63;;;21.60;57.00;;;;;;5019652;28;20025;-63
2023/01/02 10:46:21;;;;;;;3.03;1.83;;;21.60;57.00;;;;;;5018968;28;20030;-62
2023/01/02 10:48:48;;;;;;;2.33;1.63;;;21.60;57.00;;;;;;5018506;28;20041;-64
2023/01/02 10:51:15;;;;;;;2.72;1.77;;;21.60;57.00;;;;;;5018825;28;20083;-63
2023/01/02 10:53:41;;;;;;;2.35;1.60;;;21.60;57.00;;;;;;5020424;28;20417;-62
2023/01/02 10:56:17;;;;;;;2.38;1.58;;;21.60;57.00;;;;;;5022893;28;20060;-63
2023/01/02 10:58:47;;;;;;;4.07;1.80;;;21.60;57.10;;;;;;5020299;28;20052;-64
2023/01/02 11:01:17;;;;;;;2.85;1.90;;;21.60;57.00;;;;;;5019543;28;20925;-63
2023/01/02 11:03:44;;;;;;;2.25;1.55;;;21.50;57.00;;;;;;5021086;28;20025;-63
2023/01/02 11:06:30;;;;;;;2.25;1.60;;;21.60;57.10;;;;;;5018116;28;20039;-63
2023/01/02 11:09:01;;;;;;;2.75;1.70;;;21.50;57.00;;;;;;5020852;28;20469;-63
2023/01/02 11:11:30;;;;;;;2.92;1.90;;;21.50;57.10;;;;;;5020897;28;20022;-64
2023/01/02 11:14:05;;;;;;;3.97;1.90;;;21.50;57.00;;;;;;5019606;28;20053;-63
2023/01/02 11:16:35;;;;;;;2.72;1.70;;;21.50;57.10;;;;;;5018812;28;20033;-63
2023/01/02 11:19:03;;;;;;;2.42;1.55;;;21.60;57.10;;;;;;5017858;28;20106;-63
2023/01/02 11:21:32;;;;;;;2.33;1.65;;;21.50;57.10;;;;;;5021066;28;20025;-64
2023/01/02 11:24:00;;;;;;;2.15;1.60;;;21.50;57.10;;;;;;5021021;28;20083;-63
2023/01/02 11:26:27;;;;;;;2.10;1.48;;;21.50;57.10;;;;;;5018104;28;20120;-63
2023/01/02 11:28:55;;;;;;;2.03;1.40;;;21.50;57.10;;;;;;5021821;28;20034;-63
2023/01/02 11:31:21;;;;;;;3.70;1.70;;;21.50;57.10;;;;;;5025337;28;20389;-63
2023/01/02 11:33:47;;;;;;;2.65;1.58;;;21.50;57.10;;;;;;5021845;28;20099;-63
2023/01/02 11:36:17;;;;;;;2.70;1.60;;;21.50;57.10;;;;;;5018013;28;20032;-63
2023/01/02 11:38:52;;;;;;;2.92;1.73;;;21.50;57.10;;;;;;5016783;28;20484;-63
2023/01/02 11:44:22;;;;;;;2.80;1.73;;;21.50;57.20;;;;;;5016206;28;20087;-63
2023/01/02 11:46:49;;;;;;;2.50;1.70;;;21.50;57.20;;;;;;5019870;28;20560;-63
2023/01/02 11:49:21;;;;;;;2.92;1.60;;;21.50;57.30;;;;;;5019460;28;20496;-62
2023/01/02 11:51:56;;;;;;;2.38;1.40;;;21.50;57.30;;;;;;5018873;28;20609;-63
2023/01/02 11:54:48;;;;;;;2.17;1.60;;;21.50;57.30;;;;;;5020211;28;20037;-63
2023/01/02 11:57:49;;;;;;;2.33;1.55;;;21.50;57.30;;;;;;5019746;28;20040;-64
2023/01/02 12:00:18;;;;;;;2.30;1.58;;;21.50;57.30;;;;;;5020396;28;20116;-63
2023/01/02 12:02:47;;;;;;;3.22;1.73;;;21.50;57.30;;;;;;5014076;28;20895;-64
2023/01/02 12:05:15;;;;;;;2.47;1.60;;;21.50;57.30;;;;;;5019708;28;20083;-66
2023/01/02 12:07:44;;;;;;;2.90;1.75;;;21.50;57.70;;;;;;5016940;28;20608;-65
2023/01/02 12:10:21;;;;;;;3.10;2.10;;;21.50;57.90;;;;;;5019151;28;20493;-66
2023/01/02 12:13:11;;;;;;;2.88;1.77;;;21.60;58.00;;;;;;5018343;28;20467;-65
2023/01/02 12:16:05;;;;;;;2.78;1.88;;;21.70;58.00;;;;;;5015775;28;20022;-65
2023/01/02 12:18:53;;;;;;;3.67;2.22;;;21.70;57.70;;;;;;5021653;28;20025;-65
2023/01/02 12:21:41;;;;;;;3.13;2.17;;;21.80;57.60;;;;;;5018670;28;20022;-65
2023/01/02 12:24:19;;;;;;;2.95;2.20;;;21.80;57.40;;;;;;5029108;28;20085;-65
2023/01/02 12:27:05;;;;;;;3.33;2.10;;;21.80;57.60;;;;;;5019809;28;20032;-65
2023/01/02 12:29:57;;;;;;;4.00;2.28;;;21.90;57.60;;;;;;5019247;28;20043;-66
2023/01/02 12:32:41;;;;;;;2.70;1.83;;;22.00;57.30;;;;;;5027633;28;20113;-66
2023/01/02 12:35:27;;;;;;;2.53;1.70;;;22.00;57.20;;;;;;5018830;28;20392;-65
2023/01/02 12:37:58;;;;;;;3.90;2.00;;;22.00;57.10;;;;;;5017387;28;20087;-62
2023/01/02 12:40:42;;;;;;;3.28;2.22;;;22.10;57.10;;;;;;5013137;28;20481;-63
2023/01/02 12:43:33;;;;;;;2.33;1.70;;;22.10;57.10;;;;;;5016716;28;20385;-64
2023/01/02 12:46:16;;;;;;;4.90;2.28;;;22.10;57.70;;;;;;5017027;28;20061;-65
2023/01/02 12:49:22;;;;;;;4.43;2.13;;;22.20;57.20;;;;;;5016703;28;20453;-65
2023/01/02 12:51:57;;;;;;;4.25;2.20;;;22.20;56.80;;;;;;5018063;28;20033;-65
2023/01/02 12:54:25;;;;;;;5.63;1.98;;;22.30;56.70;;;;;;5017110;28;20044;-65
2023/01/02 12:57:01;;;;;;;3.45;2.10;;;22.30;56.60;;;;;;5014068;28;20033;-66
2023/01/02 12:59:29;;;;;;;3.08;2.28;;;22.30;56.60;;;;;;5016454;28;20081;-66
2023/01/02 13:02:14;;;;;;;3.45;2.20;;;22.30;56.60;;;;;;5017155;28;20037;-66
2023/01/02 13:04:47;;;;;;;3.30;2.08;;;22.40;56.50;;;;;;5020855;28;20142;-65
2023/01/02 13:07:37;;;;;;;4.25;2.10;;;22.40;56.40;;;;;;5019934;28;20025;-67
2023/01/02 13:10:04;;;;;;;3.80;2.28;;;22.40;56.20;;;;;;5018479;28;20036;-64
2023/01/02 13:12:33;;;;;;;3.58;2.38;;;22.50;56.10;;;;;;5018939;28;20124;-64